createdAt,value
2018-06-05T00:00:21.179Z,21.24
2018-06-05T00:02:50.275Z,21.26
2018-06-05T00:05:19.405Z,21.31
2018-06-05T00:07:48.512Z,21.20
2018-06-05T00:10:17.601Z,21.07
2018-06-05T00:12:46.741Z,21.13
2018-06-05T00:15:15.885Z,21.15
2018-06-05T00:17:45.001Z,21.15
2018-06-05T00:20:14.097Z,20.96
2018-06-05T00:22:43.200Z,20.99
2018-06-05T00:25:12.306Z,21.10
2018-06-05T00:27:41.439Z,21.10
2018-06-05T00:30:10.541Z,21.04
2018-06-05T00:32:39.661Z,20.91
2018-06-05T00:35:08.776Z,20.89
2018-06-05T00:37:37.882Z,20.80
2018-06-05T00:40:06.996Z,20.73
2018-06-05T00:42:36.118Z,20.73
2018-06-05T00:45:05.237Z,20.73
2018-06-05T00:47:34.349Z,20.51
2018-06-05T00:50:03.498Z,20.45
2018-06-05T00:52:32.600Z,20.42
2018-06-05T00:55:01.705Z,20.34
2018-06-05T00:57:30.797Z,20.29
2018-06-05T00:59:59.901Z,20.27
2018-06-05T01:02:29.021Z,20.32
2018-06-05T01:04:58.131Z,20.38
2018-06-05T01:07:27.245Z,20.46
2018-06-05T01:09:56.345Z,20.48
2018-06-05T01:12:25.459Z,20.45
2018-06-05T01:14:54.556Z,20.50
2018-06-05T01:17:23.680Z,20.38
2018-06-05T01:19:52.785Z,20.37
2018-06-05T01:22:21.873Z,20.56
2018-06-05T01:24:50.981Z,20.43
2018-06-05T01:27:20.377Z,20.42
2018-06-05T01:29:49.473Z,20.35
2018-06-05T01:32:18.557Z,20.10
2018-06-05T01:34:47.672Z,20.41
2018-06-05T01:37:16.773Z,20.32
2018-06-05T01:39:45.913Z,20.31
2018-06-05T01:42:15.009Z,20.30
2018-06-05T01:44:44.102Z,20.32
2018-06-05T01:47:13.223Z,20.46
2018-06-05T01:49:42.293Z,20.33
2018-06-05T01:52:11.394Z,20.23
2018-06-05T01:54:40.479Z,20.22
2018-06-05T01:57:09.573Z,20.26
2018-06-05T01:59:38.672Z,20.11
2018-06-05T02:02:07.842Z,20.01
2018-06-05T02:04:36.950Z,20.04
2018-06-05T02:07:06.151Z,20.08
2018-06-05T02:09:35.253Z,20.01
2018-06-05T02:12:04.349Z,19.84
2018-06-05T02:14:33.473Z,19.81
2018-06-05T02:17:02.561Z,19.55
2018-06-05T02:19:31.677Z,19.57
2018-06-05T02:22:00.856Z,19.71
2018-06-05T02:24:29.986Z,19.66
2018-06-05T02:26:59.362Z,19.43
2018-06-05T02:29:28.457Z,19.49
2018-06-05T02:31:57.557Z,19.44
2018-06-05T02:34:26.665Z,19.41
2018-06-05T02:36:55.759Z,19.28
2018-06-05T02:39:24.861Z,19.33
2018-06-05T02:41:54.013Z,19.27
2018-06-05T02:44:23.125Z,19.16
2018-06-05T02:46:52.238Z,19.26
2018-06-05T02:49:21.329Z,19.16
2018-06-05T02:51:50.470Z,19.30
2018-06-05T02:54:19.565Z,19.39
2018-06-05T02:56:48.690Z,19.27
2018-06-05T02:59:17.777Z,19.05
2018-06-05T03:01:46.886Z,19.32
2018-06-05T03:04:16.005Z,19.22
2018-06-05T03:06:45.105Z,18.97
2018-06-05T03:09:14.214Z,19.00
2018-06-05T03:11:43.313Z,18.88
2018-06-05T03:14:12.421Z,18.82
2018-06-05T03:16:41.529Z,18.84
2018-06-05T03:19:10.641Z,19.10
2018-06-05T03:21:39.749Z,19.09
2018-06-05T03:24:08.853Z,18.95
2018-06-05T03:26:37.951Z,18.85
2018-06-05T03:29:07.069Z,18.84
2018-06-05T03:31:36.179Z,18.93
2018-06-05T03:34:05.350Z,18.87
2018-06-05T03:36:34.385Z,18.72
2018-06-05T03:39:04.625Z,18.73
2018-06-05T03:41:33.734Z,18.76
2018-06-05T03:44:02.840Z,18.67
2018-06-05T03:46:31.964Z,18.71
2018-06-05T03:49:01.109Z,18.76
2018-06-05T03:51:30.209Z,18.68
2018-06-05T03:53:59.312Z,18.70
2018-06-05T03:56:28.453Z,18.61
2018-06-05T03:58:57.505Z,18.62
2018-06-05T04:01:26.605Z,18.74
2018-06-05T04:03:55.746Z,18.63
2018-06-05T04:06:24.833Z,18.61
2018-06-05T04:08:53.929Z,18.55
2018-06-05T04:11:23.025Z,18.51
2018-06-05T04:13:52.141Z,18.53
2018-06-05T04:16:21.245Z,18.48
2018-06-05T04:18:50.345Z,18.63
2018-06-05T04:21:19.448Z,18.56
2018-06-05T04:23:48.594Z,18.55
2018-06-05T04:26:17.777Z,18.53
2018-06-05T04:28:46.882Z,18.76
2018-06-05T04:31:15.986Z,18.73
2018-06-05T04:33:45.085Z,18.62
2018-06-05T04:36:14.233Z,18.61
2018-06-05T04:38:43.293Z,18.51
2018-06-05T04:41:12.402Z,18.67
2018-06-05T04:43:41.521Z,18.72
2018-06-05T04:46:10.605Z,18.79
2018-06-05T04:48:39.709Z,18.97
2018-06-05T04:51:08.825Z,18.87
2018-06-05T04:53:37.927Z,18.74
2018-06-05T04:56:07.138Z,18.77
2018-06-05T04:58:36.248Z,18.63
2018-06-05T05:01:05.394Z,18.48
2018-06-05T05:03:34.485Z,18.55
2018-06-05T05:06:03.606Z,18.52
2018-06-05T05:08:32.702Z,18.54
2018-06-05T05:11:01.830Z,18.52
2018-06-05T05:13:30.925Z,18.61
2018-06-05T05:16:00.026Z,18.73
2018-06-05T05:18:29.142Z,18.86
2018-06-05T05:20:58.249Z,18.66
2018-06-05T05:23:27.356Z,18.71
2018-06-05T05:25:56.466Z,18.71
2018-06-05T05:28:25.564Z,18.89
2018-06-05T05:30:54.750Z,18.94
2018-06-05T05:33:23.794Z,18.77
2018-06-05T05:35:53.016Z,18.64
2018-06-05T05:38:22.148Z,18.77
2018-06-05T05:40:51.297Z,18.63
2018-06-05T05:43:20.405Z,18.64
2018-06-05T05:45:49.517Z,18.76
2018-06-05T05:48:18.622Z,18.86
2018-06-05T05:50:47.736Z,19.07
2018-06-05T05:53:16.844Z,19.19
2018-06-05T05:55:45.967Z,18.97
2018-06-05T05:58:15.077Z,19.07
2018-06-05T06:00:44.227Z,18.85
2018-06-05T06:03:13.345Z,18.91
2018-06-05T06:05:42.447Z,18.92
2018-06-05T06:08:11.547Z,18.99
2018-06-05T06:10:40.637Z,19.07
2018-06-05T06:13:09.739Z,19.08
2018-06-05T06:15:38.842Z,19.17
2018-06-05T06:18:08.081Z,19.36
2018-06-05T06:20:37.163Z,19.35
2018-06-05T06:23:06.350Z,19.21
2018-06-05T06:25:35.454Z,19.17
2018-06-05T06:28:04.573Z,19.34
2018-06-05T06:30:33.677Z,19.22
2018-06-05T06:33:02.773Z,19.18
2018-06-05T06:35:31.877Z,19.13
2018-06-05T06:38:00.957Z,19.07
2018-06-05T06:40:30.073Z,19.13
2018-06-05T06:42:59.169Z,19.34
2018-06-05T06:45:28.269Z,19.50
2018-06-05T06:47:57.393Z,19.40
2018-06-05T06:50:26.709Z,19.38
2018-06-05T06:52:55.838Z,19.31
2018-06-05T06:55:24.907Z,19.44
2018-06-05T06:57:54.037Z,19.44
2018-06-05T07:00:23.142Z,19.35
2018-06-05T07:02:52.242Z,19.36
2018-06-05T07:05:21.349Z,19.34
2018-06-05T07:07:50.449Z,19.61
2018-06-05T07:10:19.550Z,19.54
2018-06-05T07:12:48.681Z,19.51
2018-06-05T07:15:17.777Z,19.33
2018-06-05T07:17:46.889Z,19.39
2018-06-05T07:20:15.974Z,19.41
2018-06-05T07:22:45.094Z,19.43
2018-06-05T07:25:14.225Z,19.46
2018-06-05T07:27:43.337Z,19.55
2018-06-05T07:30:12.457Z,19.56
2018-06-05T07:32:41.525Z,19.46
2018-06-05T07:35:10.637Z,19.63
2018-06-05T07:37:39.749Z,19.63
2018-06-05T07:40:08.959Z,19.62
2018-06-05T07:42:38.049Z,19.57
2018-06-05T07:45:07.149Z,19.76
2018-06-05T07:47:36.304Z,19.34
2018-06-05T07:50:05.441Z,19.39
2018-06-05T07:52:34.549Z,19.53
2018-06-05T07:55:03.705Z,19.56
2018-06-05T07:57:32.797Z,19.49
2018-06-05T08:00:02.090Z,19.40
2018-06-05T08:02:31.204Z,19.58
2018-06-05T08:05:00.329Z,19.82
2018-06-05T08:07:29.473Z,19.78
2018-06-05T08:09:58.577Z,19.72
2018-06-05T08:12:27.713Z,19.71
2018-06-05T08:14:56.809Z,19.69
2018-06-05T08:17:25.949Z,20.00
2018-06-05T08:19:55.081Z,20.20
2018-06-05T08:22:25.820Z,20.42
2018-06-05T08:24:54.931Z,20.41
2018-06-05T08:27:24.021Z,20.32
2018-06-05T08:29:53.213Z,19.92
2018-06-05T08:32:22.320Z,19.95
2018-06-05T08:34:51.424Z,19.92
2018-06-05T08:37:20.525Z,20.12
2018-06-05T08:39:49.664Z,20.04
2018-06-05T08:42:18.745Z,20.05
2018-06-05T08:44:47.857Z,20.16
2018-06-05T08:47:16.955Z,20.11
2018-06-05T08:49:46.049Z,20.09
2018-06-05T08:52:15.193Z,20.08
2018-06-05T08:54:44.285Z,20.55
2018-06-05T08:57:13.394Z,20.50
2018-06-05T08:59:42.485Z,20.36
2018-06-05T09:02:11.586Z,20.56
2018-06-05T09:04:40.685Z,20.45
2018-06-05T09:07:10.139Z,20.48
2018-06-05T09:09:39.240Z,20.58
2018-06-05T09:12:08.376Z,20.64
2018-06-05T09:14:37.534Z,20.69
2018-06-05T09:17:06.645Z,20.99
2018-06-05T09:19:35.745Z,20.88
2018-06-05T09:22:04.904Z,20.90
2018-06-05T09:24:34.114Z,20.87
2018-06-05T09:27:03.241Z,21.26
2018-06-05T09:29:32.381Z,21.28
2018-06-05T09:32:01.522Z,20.95
2018-06-05T09:34:30.616Z,20.87
2018-06-05T09:36:59.802Z,21.96
2018-06-05T09:39:28.900Z,22.31
2018-06-05T09:41:57.998Z,21.70
2018-06-05T09:44:27.082Z,21.63
2018-06-05T09:46:56.228Z,21.62
2018-06-05T09:49:25.313Z,22.28
2018-06-05T09:51:54.429Z,22.97
2018-06-05T09:54:23.521Z,22.87
2018-06-05T09:56:52.638Z,23.51
2018-06-05T09:59:21.745Z,23.00
2018-06-05T10:01:50.841Z,22.65
2018-06-05T10:04:19.943Z,22.83
2018-06-05T10:06:49.030Z,23.40
2018-06-05T10:09:18.154Z,23.74
2018-06-05T10:11:47.249Z,23.58
2018-06-05T10:14:16.341Z,23.49
2018-06-05T10:16:45.443Z,23.49
2018-06-05T10:19:14.552Z,23.43
2018-06-05T10:21:43.644Z,22.86
2018-06-05T10:24:12.781Z,23.46
2018-06-05T10:26:41.887Z,23.74
2018-06-05T10:29:11.002Z,23.22
2018-06-05T10:31:40.134Z,23.03
2018-06-05T10:34:09.239Z,22.89
2018-06-05T10:36:38.350Z,23.46
2018-06-05T10:39:08.169Z,23.74
2018-06-05T10:41:37.297Z,23.13
2018-06-05T10:44:06.388Z,23.39
2018-06-05T10:46:35.502Z,23.53
2018-06-05T10:49:04.601Z,23.08
2018-06-05T10:51:33.725Z,23.35
2018-06-05T10:54:02.826Z,23.79
2018-06-05T10:56:31.925Z,23.85
2018-06-05T10:59:01.067Z,24.05
2018-06-05T11:01:30.141Z,23.83
2018-06-05T11:03:59.226Z,23.67
2018-06-05T11:06:28.328Z,24.15
2018-06-05T11:08:57.429Z,24.00
2018-06-05T11:11:26.557Z,23.61
2018-06-05T11:13:55.678Z,24.18
2018-06-05T11:16:24.784Z,24.17
2018-06-05T11:18:53.949Z,24.29
2018-06-05T11:21:23.055Z,24.07
2018-06-05T11:23:52.149Z,24.34
2018-06-05T11:26:21.253Z,24.77
2018-06-05T11:28:50.357Z,24.43
2018-06-05T11:31:19.493Z,24.53
2018-06-05T11:33:48.584Z,24.27
2018-06-05T11:36:17.706Z,23.92
2018-06-05T11:38:46.813Z,24.44
2018-06-05T11:41:15.922Z,24.42
2018-06-05T11:43:45.021Z,24.77
2018-06-05T11:46:14.117Z,24.25
2018-06-05T11:48:43.248Z,24.57
2018-06-05T11:51:12.361Z,24.67
2018-06-05T11:53:41.461Z,24.62
2018-06-05T11:56:10.578Z,24.93
2018-06-05T11:58:39.705Z,24.93
2018-06-05T12:01:08.807Z,25.13
2018-06-05T12:03:37.889Z,25.77
2018-06-05T12:06:07.029Z,25.77
2018-06-05T12:08:36.153Z,25.87
2018-06-05T12:11:05.281Z,25.53
2018-06-05T12:13:34.365Z,25.11
2018-06-05T12:16:03.497Z,25.67
2018-06-05T12:18:32.594Z,25.89
2018-06-05T12:21:01.703Z,25.46
2018-06-05T12:23:30.791Z,25.95
2018-06-05T12:26:00.324Z,26.10
2018-06-05T12:28:29.430Z,26.10
2018-06-05T12:30:58.562Z,26.14
2018-06-05T12:33:27.741Z,25.74
2018-06-05T12:35:56.897Z,25.72
2018-06-05T12:38:25.994Z,26.08
2018-06-05T12:40:55.089Z,26.18
2018-06-05T12:43:24.193Z,25.88
2018-06-05T12:45:53.272Z,26.64
2018-06-05T12:48:22.476Z,26.16
2018-06-05T12:50:51.629Z,26.31
2018-06-05T12:53:20.799Z,26.40
2018-06-05T12:55:49.889Z,26.33
2018-06-05T12:58:19.001Z,26.33
2018-06-05T13:00:48.112Z,26.09
2018-06-05T13:03:17.189Z,26.82
2018-06-05T13:05:46.301Z,26.06
2018-06-05T13:08:15.485Z,26.32
2018-06-05T13:10:44.601Z,26.73
2018-06-05T13:13:13.697Z,26.64
2018-06-05T13:15:42.815Z,26.65
2018-06-05T13:18:11.933Z,26.49
2018-06-05T13:20:41.037Z,26.42
2018-06-05T13:23:10.213Z,25.92
2018-06-05T13:25:39.257Z,26.33
2018-06-05T13:28:08.417Z,26.41
2018-06-05T13:30:37.581Z,26.32
2018-06-05T13:33:06.710Z,26.14
2018-06-05T13:35:35.837Z,26.45
2018-06-05T13:38:04.949Z,26.47
2018-06-05T13:40:34.053Z,26.86
2018-06-05T13:43:03.160Z,26.34
2018-06-05T13:45:32.260Z,26.62
2018-06-05T13:48:01.340Z,26.57
2018-06-05T13:50:30.465Z,26.73
2018-06-05T13:52:59.571Z,26.81
2018-06-05T13:55:28.681Z,26.47
2018-06-05T13:57:57.764Z,26.41
2018-06-05T14:00:26.885Z,26.19
2018-06-05T14:02:55.988Z,26.24
2018-06-05T14:05:25.078Z,26.55
2018-06-05T14:07:54.197Z,26.77
2018-06-05T14:10:23.286Z,26.63
2018-06-05T14:12:52.389Z,26.62
2018-06-05T14:15:21.501Z,26.29
2018-06-05T14:17:50.689Z,26.52
2018-06-05T14:20:19.800Z,26.54
2018-06-05T14:22:48.909Z,26.29
2018-06-05T14:25:18.017Z,26.71
2018-06-05T14:27:47.157Z,26.45
2018-06-05T14:30:16.275Z,26.26
2018-06-05T14:32:45.364Z,26.22
2018-06-05T14:35:14.481Z,26.07
2018-06-05T14:37:43.600Z,26.17
2018-06-05T14:40:12.700Z,26.35
2018-06-05T14:42:41.781Z,26.40
2018-06-05T14:45:11.823Z,26.20
2018-06-05T14:47:40.864Z,26.48
2018-06-05T14:50:09.961Z,26.47
2018-06-05T14:52:39.085Z,26.50
2018-06-05T14:55:08.288Z,26.52
2018-06-05T14:57:37.422Z,26.21
2018-06-05T15:00:06.558Z,26.55
2018-06-05T15:02:35.665Z,26.32
2018-06-05T15:05:04.802Z,26.30
2018-06-05T15:07:33.921Z,26.14
2018-06-05T15:10:03.005Z,26.27
2018-06-05T15:12:32.101Z,26.32
2018-06-05T15:15:01.222Z,26.35
2018-06-05T15:17:30.327Z,26.31
2018-06-05T15:19:59.441Z,26.39
2018-06-05T15:22:28.554Z,26.28
2018-06-05T15:24:57.656Z,26.01
2018-06-05T15:27:27.813Z,25.92
2018-06-05T15:29:56.941Z,26.05
2018-06-05T15:32:26.033Z,26.17
2018-06-05T15:34:55.179Z,26.36
2018-06-05T15:37:24.313Z,26.16
2018-06-05T15:39:53.433Z,25.91
2018-06-05T15:42:22.573Z,26.23
2018-06-05T15:44:51.685Z,25.94
2018-06-05T15:47:20.793Z,25.87
2018-06-05T15:49:49.897Z,25.60
2018-06-05T15:52:19.045Z,25.82
2018-06-05T15:54:48.145Z,25.65
2018-06-05T15:57:17.525Z,25.75
2018-06-05T15:59:46.673Z,25.67
2018-06-05T16:02:15.787Z,25.82
2018-06-05T16:04:45.011Z,25.63
2018-06-05T16:07:14.084Z,25.87
2018-06-05T16:09:43.197Z,25.92
2018-06-05T16:12:12.350Z,25.79
2018-06-05T16:14:41.405Z,25.59
2018-06-05T16:17:10.506Z,25.59
2018-06-05T16:19:39.601Z,25.70
2018-06-05T16:22:08.697Z,25.79
2018-06-05T16:24:37.792Z,25.42
2018-06-05T16:27:07.029Z,25.39
2018-06-05T16:29:36.229Z,25.24
2018-06-05T16:32:05.330Z,25.33
2018-06-05T16:34:34.461Z,25.22
2018-06-05T16:37:03.596Z,25.16
2018-06-05T16:39:32.697Z,25.31
2018-06-05T16:42:01.825Z,25.32
2018-06-05T16:44:30.945Z,25.07
2018-06-05T16:47:00.066Z,25.00
2018-06-05T16:49:29.161Z,25.35
2018-06-05T16:51:58.257Z,25.48
2018-06-05T16:54:27.362Z,25.07
2018-06-05T16:56:56.456Z,25.15
2018-06-05T16:59:25.572Z,25.11
2018-06-05T17:01:54.671Z,25.10
2018-06-05T17:04:23.794Z,24.79
2018-06-05T17:06:52.861Z,24.90
2018-06-05T17:09:21.998Z,24.91
2018-06-05T17:11:51.128Z,24.90
2018-06-05T17:14:20.220Z,25.00
2018-06-05T17:16:49.317Z,25.19
2018-06-05T17:19:18.409Z,24.95
2018-06-05T17:21:47.518Z,24.99
2018-06-05T17:27:13.984Z,24.51
2018-06-05T17:29:43.046Z,24.53
2018-06-05T17:32:12.249Z,24.54
2018-06-05T17:34:41.381Z,24.59
2018-06-05T17:37:10.522Z,24.39
2018-06-05T17:39:39.633Z,24.33
2018-06-05T17:42:08.738Z,24.40
2018-06-05T17:44:37.841Z,24.29
2018-06-05T17:47:06.965Z,24.11
2018-06-05T17:49:36.077Z,24.20
2018-06-05T17:52:05.239Z,24.28
2018-06-05T17:54:34.354Z,24.16
2018-06-05T18:00:00.561Z,24.10
2018-06-05T18:02:30.215Z,24.13
2018-06-05T18:04:59.333Z,24.08
2018-06-05T18:07:28.572Z,23.96
2018-06-05T18:09:57.712Z,23.82
2018-06-05T18:12:26.893Z,23.84
2018-06-05T18:14:56.386Z,23.96
2018-06-05T18:17:25.505Z,23.78
2018-06-05T18:19:54.613Z,23.75
2018-06-05T18:22:23.722Z,23.64
2018-06-05T18:24:52.829Z,23.73
2018-06-05T18:27:21.946Z,23.72
2018-06-05T18:29:51.046Z,23.46
2018-06-05T18:32:20.162Z,23.53
2018-06-05T18:34:49.274Z,23.72
2018-06-05T18:37:18.484Z,23.56
2018-06-05T18:39:47.536Z,23.56
2018-06-05T18:42:16.682Z,23.65
2018-06-05T18:44:45.789Z,23.38
2018-06-05T18:47:14.921Z,23.47
2018-06-05T18:49:44.132Z,23.56
2018-06-05T18:52:13.681Z,23.46
2018-06-05T18:54:42.905Z,23.46
2018-06-05T18:57:12.035Z,23.43
2018-06-05T18:59:41.150Z,23.32
2018-06-05T19:02:10.294Z,23.35
2018-06-05T19:04:39.414Z,23.31
2018-06-05T19:07:08.671Z,23.11
2018-06-05T19:09:37.742Z,23.21
2018-06-05T19:12:06.950Z,23.20
2018-06-05T19:14:36.088Z,23.22
2018-06-05T19:17:05.335Z,23.29
2018-06-05T19:19:34.454Z,23.21
2018-06-05T19:22:03.666Z,23.00
2018-06-05T19:24:38.441Z,22.93
2018-06-05T19:27:07.628Z,22.90
2018-06-05T19:29:36.876Z,22.90
2018-06-05T19:32:05.894Z,23.04
2018-06-05T19:34:35.020Z,22.72
2018-06-05T19:37:04.186Z,22.82
2018-06-05T19:39:33.336Z,22.77
2018-06-05T19:42:02.526Z,22.60
2018-06-05T19:44:31.601Z,22.59
2018-06-05T19:47:00.734Z,22.64
2018-06-05T19:49:29.877Z,22.62
2018-06-05T19:51:59.052Z,22.62
2018-06-05T19:54:28.146Z,22.40
2018-06-05T19:56:57.290Z,22.35
2018-06-05T19:59:26.413Z,22.36
2018-06-05T20:01:55.516Z,22.33
2018-06-05T20:04:24.657Z,22.29
2018-06-05T20:06:53.902Z,22.31
2018-06-05T20:09:23.933Z,22.36
2018-06-05T20:11:53.038Z,22.24
2018-06-05T20:14:22.258Z,22.24
2018-06-05T20:16:51.380Z,22.09
2018-06-05T20:19:20.490Z,21.95
2018-06-05T20:21:49.681Z,21.93
2018-06-05T20:24:18.925Z,21.96
2018-06-05T20:26:48.039Z,21.77
2018-06-05T20:29:18.362Z,21.96
2018-06-05T20:31:48.390Z,22.07
2018-06-05T20:34:17.526Z,22.07
2018-06-05T20:36:46.674Z,21.81
2018-06-05T20:39:15.782Z,21.78
2018-06-05T20:41:44.916Z,21.94
2018-06-05T20:44:14.127Z,21.94
2018-06-05T20:46:43.245Z,21.98
2018-06-05T20:49:12.370Z,21.87
2018-06-05T20:51:41.532Z,21.76
2018-06-05T20:54:10.688Z,21.74
2018-06-05T20:56:39.797Z,21.82
2018-06-05T20:59:08.930Z,21.94
2018-06-05T21:01:42.699Z,21.82
2018-06-05T21:04:11.809Z,21.90
2018-06-05T21:06:40.934Z,21.89
2018-06-05T21:09:10.078Z,21.73
2018-06-05T21:11:39.204Z,21.79
2018-06-05T21:14:08.330Z,21.67
2018-06-05T21:16:37.468Z,21.50
2018-06-05T21:19:06.586Z,21.67
2018-06-05T21:21:35.697Z,21.67
2018-06-05T21:24:04.909Z,21.68
2018-06-05T21:26:33.985Z,21.48
2018-06-05T21:29:03.102Z,21.33
2018-06-05T21:31:32.233Z,21.32
2018-06-05T21:34:01.389Z,21.19
2018-06-05T21:36:30.498Z,21.51
2018-06-05T21:39:15.949Z,21.58
2018-06-05T21:41:45.073Z,21.45
2018-06-05T21:44:14.186Z,21.20
2018-06-05T21:46:43.301Z,21.36
2018-06-05T21:49:12.753Z,21.30
2018-06-05T21:51:41.891Z,21.19
2018-06-05T21:54:11.049Z,20.99
2018-06-05T21:56:40.166Z,20.89
2018-06-05T21:59:09.296Z,21.11
2018-06-05T22:01:38.410Z,20.94
2018-06-05T22:04:07.585Z,21.10
2018-06-05T22:06:36.705Z,21.03
2018-06-05T22:09:08.174Z,20.92
2018-06-05T22:11:37.294Z,20.87
2018-06-05T22:14:06.529Z,20.92
2018-06-05T22:16:35.653Z,20.48
2018-06-05T22:19:04.745Z,20.48
2018-06-05T22:21:33.878Z,20.28
2018-06-05T22:24:02.990Z,20.45
2018-06-05T22:26:32.101Z,20.32
2018-06-05T22:29:01.222Z,20.40
2018-06-05T22:31:30.337Z,20.62
2018-06-05T22:33:59.473Z,20.36
2018-06-05T22:36:28.618Z,20.40
2018-06-05T22:38:57.770Z,20.45
2018-06-05T22:41:26.929Z,20.36
2018-06-05T22:43:56.049Z,20.24
2018-06-05T22:46:25.189Z,20.39
2018-06-05T22:48:54.306Z,20.31
2018-06-05T22:51:23.454Z,20.44
2018-06-05T22:53:52.581Z,20.16
2018-06-05T22:56:21.701Z,20.23
2018-06-05T22:58:50.877Z,20.21
2018-06-05T23:01:20.590Z,20.18
2018-06-05T23:03:49.725Z,19.83
2018-06-05T23:06:18.845Z,19.62
2018-06-05T23:08:47.988Z,19.98
2018-06-05T23:11:17.106Z,19.86
2018-06-05T23:13:46.258Z,19.83
2018-06-05T23:16:15.378Z,19.78
2018-06-05T23:18:44.506Z,19.38
2018-06-05T23:21:13.651Z,19.33
2018-06-05T23:23:42.785Z,19.72
2018-06-05T23:26:11.917Z,19.87
2018-06-05T23:28:41.078Z,19.62
2018-06-05T23:31:10.226Z,19.67
2018-06-05T23:33:39.370Z,19.59
2018-06-05T23:36:08.503Z,19.60
2018-06-05T23:38:37.635Z,19.34
2018-06-05T23:41:06.824Z,19.53
2018-06-05T23:43:35.925Z,19.49
2018-06-05T23:46:05.053Z,19.50
2018-06-05T23:48:34.165Z,19.54
2018-06-05T23:51:03.343Z,19.57
2018-06-05T23:53:32.453Z,19.44
2018-06-05T23:56:01.590Z,19.09
2018-06-05T23:58:30.706Z,19.28
